Time;durP1;ratioP1;P1;durP2;ratioP2;P2;SDS_P1;SDS_P2;PMS_P1;PMS_P2;Temp;Humidity;BMP_temperature;BMP_pressure;BME280_temperature;BME280_humidity;BME280_pressure;Samples;Min_cycle;Max_cycle;Signal;HPM_P1;HPM_P2
2023/10/07 00:01:28;;;;;;;2.50;2.30;;;22.00;56.70;;;;;;217441;1298;23194;-60
2023/10/07 00:06:34;;;;;;;2.50;2.30;;;22.00;56.70;;;;;;217303;1294;22552;-59
2023/10/07 00:11:37;;;;;;;3.60;2.20;;;22.10;56.70;;;;;;217201;1298;25166;-63
2023/10/07 00:16:43;;;;;;;4.00;2.80;;;22.00;56.70;;;;;;217179;1298;22566;-61
2023/10/07 00:21:59;;;;;;;3.00;2.40;;;22.00;56.70;;;;;;217433;1298;22554;-60
2023/10/07 00:27:04;;;;;;;3.80;2.60;;;22.00;56.70;;;;;;217308;1298;24352;-61
2023/10/07 00:32:07;;;;;;;2.80;2.30;;;22.00;56.70;;;;;;217288;1295;22559;-61
2023/10/07 00:37:10;;;;;;;5.70;3.50;;;22.00;57.10;;;;;;217230;1295;22687;-62
2023/10/07 00:42:13;;;;;;;2.50;2.30;;;22.00;56.60;;;;;;217396;1298;22701;-62
2023/10/07 00:47:18;;;;;;;2.20;2.00;;;21.90;56.60;;;;;;217276;1298;24320;-62
2023/10/07 00:52:33;;;;;;;2.60;2.00;;;22.00;56.60;;;;;;217010;1292;22568;-60
2023/10/07 00:57:47;;;;;;;4.50;2.60;;;22.00;56.60;;;;;;217349;1295;22818;-59
2023/10/07 01:02:51;;;;;;;6.40;3.60;;;22.00;56.60;;;;;;217379;1298;22649;-62
2023/10/07 01:07:55;;;;;;;3.50;2.40;;;22.00;56.50;;;;;;217386;1298;22567;-60
2023/10/07 01:13:03;;;;;;;3.50;2.40;;;21.90;56.60;;;;;;217362;1297;22826;-61
2023/10/07 01:18:06;;;;;;;2.30;1.90;;;21.90;56.60;;;;;;217535;1285;22572;-64
2023/10/07 01:23:16;;;;;;;4.10;2.20;;;21.90;56.50;;;;;;217358;1298;22556;-62
2023/10/07 01:28:21;;;;;;;2.40;2.10;;;22.00;56.90;;;;;;217546;1298;22568;-62
2023/10/07 01:38:28;;;;;;;2.60;2.40;;;21.90;56.60;;;;;;217270;1295;22663;-60
2023/10/07 01:43:31;;;;;;;2.70;2.20;;;21.90;56.50;;;;;;217568;1295;22568;-61
2023/10/07 01:48:35;;;;;;;1.90;1.80;;;21.90;56.50;;;;;;217502;1295;22632;-62
2023/10/07 01:53:38;;;;;;;2.90;2.40;;;21.90;56.50;;;;;;217332;1295;24285;-60
2023/10/07 01:58:41;;;;;;;2.30;2.10;;;21.90;56.60;;;;;;217548;1298;22579;-61
2023/10/07 02:03:46;;;;;;;3.10;1.70;;;21.90;56.60;;;;;;217093;1298;22623;-60
2023/10/07 02:08:50;;;;;;;2.00;1.90;;;21.90;56.50;;;;;;217344;1298;22578;-61
2023/10/07 02:13:55;;;;;;;2.20;1.90;;;21.90;56.60;;;;;;217538;1298;22789;-59
2023/10/07 02:19:00;;;;;;;3.00;2.20;;;21.90;56.50;;;;;;217112;1298;22703;-62
2023/10/07 02:24:06;;;;;;;2.90;2.40;;;21.90;56.50;;;;;;217490;1296;22556;-63
2023/10/07 02:29:13;;;;;;;2.40;2.00;;;21.90;56.60;;;;;;217402;1298;22780;-62
2023/10/07 02:34:28;;;;;;;2.20;2.00;;;21.90;56.50;;;;;;217351;1295;22637;-60
2023/10/07 02:39:45;;;;;;;1.90;1.80;;;21.90;56.60;;;;;;217619;1298;22569;-61
2023/10/07 02:45:00;;;;;;;2.20;2.00;;;21.90;56.60;;;;;;217261;1298;23173;-62
2023/10/07 02:50:08;;;;;;;2.90;2.20;;;21.90;56.50;;;;;;217561;1292;22557;-62
2023/10/07 03:00:38;;;;;;;3.40;2.60;;;21.80;56.50;;;;;;217383;1298;22571;-64
2023/10/07 03:05:45;;;;;;;;;;;21.90;56.60;;;;;;217055;1298;248975;-61
2023/10/07 03:11:03;;;;;;;2.20;1.80;;;21.90;56.60;;;;;;217465;1298;24222;-61
2023/10/07 03:26:45;;;;;;;2.70;2.20;;;21.90;56.70;;;;;;217320;1298;22745;-61
2023/10/07 03:31:50;;;;;;;2.30;2.10;;;21.80;57.00;;;;;;217438;1298;24438;-60
2023/10/07 03:42:14;;;;;;;4.10;2.70;;;21.80;56.60;;;;;;217468;1295;22549;-61
2023/10/07 03:47:17;;;;;;;2.10;1.90;;;21.80;56.70;;;;;;217392;1298;24241;-62
2023/10/07 03:52:21;;;;;;;2.90;2.10;;;21.80;56.60;;;;;;217489;1298;22571;-61
2023/10/07 03:57:24;;;;;;;2.60;2.40;;;21.80;56.60;;;;;;217418;1298;25459;-60
2023/10/07 04:02:36;;;;;;;2.20;2.00;;;21.80;56.60;;;;;;217351;1291;22556;-60
2023/10/07 04:07:43;;;;;;;2.40;2.20;;;21.80;57.00;;;;;;217375;1298;22560;-61
2023/10/07 04:12:47;;;;;;;2.60;2.10;;;21.80;56.70;;;;;;217476;1298;24278;-61
2023/10/07 04:17:52;;;;;;;3.50;2.40;;;21.80;56.60;;;;;;217493;1285;22568;-62
2023/10/07 04:23:00;;;;;;;2.60;1.90;;;21.80;56.60;;;;;;217365;1295;25382;-60
2023/10/07 04:28:06;;;;;;;2.20;2.10;;;21.80;56.70;;;;;;217352;1298;23511;-60
2023/10/07 04:33:10;;;;;;;2.20;2.00;;;21.80;57.30;;;;;;217284;1294;24279;-61
2023/10/07 04:38:39;;;;;;;4.20;2.70;;;21.80;56.50;;;;;;217306;1297;25338;-61
2023/10/07 04:48:56;;;;;;;1.90;1.80;;;21.80;56.40;;;;;;217074;1294;22624;-59
2023/10/07 04:54:00;;;;;;;3.10;2.20;;;21.80;56.40;;;;;;217504;1298;22560;-60
2023/10/07 04:59:06;;;;;;;1.70;1.60;;;21.80;56.50;;;;;;217262;1294;25342;-61
2023/10/07 05:04:10;;;;;;;3.90;2.50;;;21.80;56.40;;;;;;217267;1292;23514;-61
2023/10/07 05:09:18;;;;;;;3.30;1.80;;;21.80;56.40;;;;;;217400;1296;25390;-61
2023/10/07 05:14:24;;;;;;;3.20;2.60;;;21.80;56.50;;;;;;217317;1292;25435;-60
2023/10/07 05:19:28;;;;;;;2.50;1.90;;;21.80;56.40;;;;;;217673;1285;24428;-61
2023/10/07 05:24:32;;;;;;;2.70;2.30;;;21.80;56.20;;;;;;217270;1294;24399;-59
2023/10/07 05:29:35;;;;;;;2.70;2.20;;;21.80;56.50;;;;;;217517;1295;22549;-61
2023/10/07 05:34:41;;;;;;;4.00;2.90;;;21.80;56.50;;;;;;217571;1298;22682;-60
2023/10/07 05:39:45;;;;;;;2.20;2.00;;;21.80;56.50;;;;;;217593;1292;23946;-60
2023/10/07 05:44:48;;;;;;;3.70;2.40;;;21.80;56.50;;;;;;217196;1295;23632;-60
2023/10/07 05:49:55;;;;;;;2.40;2.20;;;21.80;56.50;;;;;;217372;1298;22579;-61
2023/10/07 05:54:58;;;;;;;2.50;2.00;;;21.70;56.50;;;;;;217372;1284;22542;-60
2023/10/07 06:00:03;;;;;;;2.80;2.10;;;21.80;56.90;;;;;;217350;1298;22624;-60
2023/10/07 06:05:06;;;;;;;5.10;1.90;;;21.80;56.50;;;;;;217430;1295;22734;-59
2023/10/07 06:10:13;;;;;;;3.00;2.20;;;21.80;56.60;;;;;;217457;1296;23821;-62
2023/10/07 06:15:18;;;;;;;2.30;2.00;;;21.80;56.60;;;;;;217406;1292;22575;-60
2023/10/07 06:20:26;;;;;;;2.40;2.20;;;21.80;57.20;;;;;;217179;1294;24327;-61
2023/10/07 06:25:33;;;;;;;2.30;2.10;;;21.80;56.50;;;;;;217489;1294;22583;-61
2023/10/07 06:30:38;;;;;;;1.90;1.80;;;21.80;56.50;;;;;;217563;1298;22546;-59
2023/10/07 06:35:41;;;;;;;2.30;1.80;;;21.80;56.40;;;;;;217408;1295;22628;-59
2023/10/07 06:40:44;;;;;;;2.60;2.20;;;21.80;56.40;;;;;;217408;1298;22549;-60
2023/10/07 06:45:47;;;;;;;3.20;2.40;;;21.80;56.50;;;;;;217282;1298;22589;-61
2023/10/07 06:50:53;;;;;;;2.30;2.10;;;21.80;56.40;;;;;;217479;1298;24257;-66
2023/10/07 06:56:01;;;;;;;2.20;1.90;;;21.80;56.40;;;;;;217354;1291;22555;-64
2023/10/07 07:01:17;;;;;;;2.60;1.90;;;21.80;56.60;;;;;;217323;1298;24417;-64
2023/10/07 07:06:33;;;;;;;2.20;2.00;;;21.80;56.30;;;;;;217214;1288;22811;-64
2023/10/07 07:11:36;;;;;;;2.20;2.00;;;21.90;56.30;;;;;;217244;1292;22634;-64
2023/10/07 07:16:42;;;;;;;3.60;2.50;;;22.00;56.20;;;;;;217335;1298;22563;-63
2023/10/07 07:21:48;;;;;;;1.50;1.40;;;22.00;56.30;;;;;;217434;1295;22561;-66
2023/10/07 07:26:52;;;;;;;2.10;1.80;;;21.90;56.50;;;;;;217425;1298;24299;-66
2023/10/07 07:31:55;;;;;;;2.30;2.10;;;21.90;56.40;;;;;;217248;1294;26724;-66
2023/10/07 07:37:04;;;;;;;2.40;2.00;;;21.90;56.30;;;;;;217178;1281;22721;-64
2023/10/07 07:42:15;;;;;;;1.70;1.60;;;22.00;56.40;;;;;;217498;1295;25552;-64
2023/10/07 07:47:19;;;;;;;2.40;2.10;;;22.00;56.40;;;;;;217341;1298;22586;-64
2023/10/07 07:52:23;;;;;;;1.90;1.70;;;22.00;56.30;;;;;;217456;1285;22561;-65
2023/10/07 07:57:27;;;;;;;1.80;1.70;;;22.00;56.80;;;;;;217440;1297;22563;-66
2023/10/07 08:02:35;;;;;;;1.80;1.60;;;22.00;56.80;;;;;;217177;1294;22603;-64
2023/10/07 08:07:39;;;;;;;2.30;2.10;;;22.00;56.30;;;;;;217695;1298;22582;-64
2023/10/07 08:12:42;;;;;;;2.10;1.70;;;22.10;56.40;;;;;;217440;1298;22562;-64
2023/10/07 08:17:45;;;;;;;1.80;1.70;;;22.10;56.40;;;;;;217450;1295;22654;-67
2023/10/07 08:22:51;;;;;;;1.90;1.80;;;22.00;56.40;;;;;;217540;1294;22566;-64
2023/10/07 08:27:55;;;;;;;2.00;1.70;;;22.10;56.40;;;;;;217393;1298;22551;-65
2023/10/07 08:33:01;;;;;;;3.60;2.40;;;22.10;56.10;;;;;;217374;1298;22556;-64
2023/10/07 08:38:21;;;;;;;2.00;1.80;;;22.10;56.80;;;;;;217448;1282;24337;-65
2023/10/07 08:43:32;;;;;;;2.40;1.90;;;22.10;56.50;;;;;;217395;1297;22599;-64
2023/10/07 08:48:38;;;;;;;2.10;1.90;;;22.10;56.50;;;;;;217391;1298;23929;-64
2023/10/07 08:53:41;;;;;;;1.90;1.50;;;22.10;56.50;;;;;;217229;1297;25972;-64
2023/10/07 08:58:49;;;;;;;2.20;1.70;;;22.10;56.60;;;;;;217447;1294;22555;-64
2023/10/07 09:04:00;;;;;;;2.40;2.20;;;22.10;56.60;;;;;;217656;1294;22581;-65
2023/10/07 09:09:07;;;;;;;2.50;2.00;;;22.10;56.70;;;;;;217369;1298;22585;-66
2023/10/07 09:14:10;;;;;;;2.50;2.00;;;22.10;57.00;;;;;;217427;1295;22570;-61
2023/10/07 09:19:19;;;;;;;2.60;1.90;;;22.10;56.70;;;;;;217448;1298;22567;-63
2023/10/07 09:24:26;;;;;;;1.80;1.60;;;22.10;56.70;;;;;;217583;1298;24391;-59
2023/10/07 09:29:32;;;;;;;2.40;2.20;;;22.10;56.80;;;;;;217444;1298;24109;-61
2023/10/07 09:34:41;;;;;;;1.90;1.70;;;22.10;56.80;;;;;;217431;1292;22542;-62
2023/10/07 09:39:46;;;;;;;2.20;2.00;;;22.10;56.80;;;;;;217498;1298;24211;-64
2023/10/07 09:44:53;;;;;;;3.60;2.40;;;22.10;56.80;;;;;;217648;1298;24081;-61
2023/10/07 09:49:58;;;;;;;2.50;2.10;;;22.00;56.80;;;;;;217577;1298;24282;-61
2023/10/07 09:55:22;;;;;;;2.60;2.00;;;22.10;56.90;;;;;;217370;1298;22602;-65
2023/10/07 10:05:48;;;;;;;1.90;1.70;;;22.00;56.90;;;;;;217334;1297;22557;-62
2023/10/07 10:10:57;;;;;;;2.80;1.70;;;22.00;57.30;;;;;;217663;1298;23607;-63
2023/10/07 10:16:00;;;;;;;3.90;1.70;;;22.10;57.00;;;;;;217427;1298;24254;-62
2023/10/07 10:21:05;;;;;;;1.90;1.60;;;22.00;57.10;;;;;;217242;1298;22568;-60
2023/10/07 10:26:26;;;;;;;1.80;1.60;;;22.00;57.00;;;;;;217660;1298;22575;-61
2023/10/07 10:31:32;;;;;;;2.50;2.30;;;22.00;57.40;;;;;;217187;1298;24279;-60
2023/10/07 10:36:43;;;;;;;1.90;1.70;;;22.00;57.10;;;;;;217460;1298;22552;-61
2023/10/07 10:41:46;;;;;;;2.20;1.80;;;22.10;57.50;;;;;;217592;1294;22675;-62
2023/10/07 10:46:50;;;;;;;3.20;1.90;;;22.00;57.00;;;;;;217588;1285;24425;-62
2023/10/07 10:51:55;;;;;;;1.90;1.80;;;22.00;57.00;;;;;;217472;1298;24398;-62
2023/10/07 10:56:58;;;;;;;2.20;1.80;;;22.10;57.10;;;;;;217375;1292;22549;-61
2023/10/07 11:02:01;;;;;;;1.60;1.50;;;22.00;57.30;;;;;;217659;1294;23979;-62
2023/10/07 11:07:07;;;;;;;3.60;2.10;;;22.10;57.20;;;;;;217414;1298;22570;-64
2023/10/07 11:12:12;;;;;;;2.00;1.60;;;22.10;57.20;;;;;;217548;1284;22656;-62
2023/10/07 11:17:18;;;;;;;2.20;1.70;;;22.00;57.30;;;;;;217327;1298;22559;-59
2023/10/07 11:22:22;;;;;;;2.20;1.80;;;22.10;57.20;;;;;;217593;1298;22671;-62
2023/10/07 11:27:26;;;;;;;4.10;2.10;;;22.00;57.30;;;;;;217440;1291;24317;-63
2023/10/07 11:32:30;;;;;;;2.40;2.20;;;22.10;57.30;;;;;;217546;1294;22712;-65
2023/10/07 11:37:33;;;;;;;2.90;1.90;;;22.10;57.30;;;;;;217380;1298;22552;-64
2023/10/07 11:42:36;;;;;;;2.30;2.00;;;22.10;57.20;;;;;;217487;1298;22679;-65
2023/10/07 11:47:39;;;;;;;2.30;2.00;;;22.10;57.30;;;;;;217299;1297;24332;-65
2023/10/07 11:52:43;;;;;;;2.50;1.70;;;22.10;57.30;;;;;;217508;1297;22650;-65
2023/10/07 11:57:46;;;;;;;2.40;2.00;;;22.10;57.40;;;;;;217312;1298;22608;-65
2023/10/07 12:02:52;;;;;;;2.00;1.90;;;22.00;57.40;;;;;;217526;1298;22602;-65
2023/10/07 12:07:59;;;;;;;2.10;1.90;;;22.10;57.40;;;;;;217508;1297;22700;-65
2023/10/07 12:13:07;;;;;;;1.80;1.60;;;22.00;57.40;;;;;;217616;1296;23051;-65
2023/10/07 12:18:09;;;;;;;1.80;1.60;;;22.10;57.40;;;;;;217476;1295;22555;-64
2023/10/07 12:23:12;;;;;;;2.50;1.90;;;22.10;57.40;;;;;;217418;1298;22729;-66
2023/10/07 12:28:16;;;;;;;6.30;2.10;;;22.00;57.40;;;;;;217671;1294;22546;-65
2023/10/07 12:33:19;;;;;;;2.40;2.00;;;22.10;57.40;;;;;;217448;1298;22564;-65
2023/10/07 12:38:38;;;;;;;3.00;2.00;;;22.10;57.40;;;;;;217654;1294;22817;-64
2023/10/07 12:43:41;;;;;;;2.30;1.70;;;22.00;57.50;;;;;;217450;1298;22771;-65
2023/10/07 12:48:46;;;;;;;2.10;1.90;;;22.10;57.50;;;;;;217386;1298;24142;-65
2023/10/07 12:53:51;;;;;;;2.20;2.00;;;22.10;57.50;;;;;;217650;1298;22553;-64
2023/10/07 12:58:55;;;;;;;1.90;1.60;;;22.10;57.50;;;;;;217357;1298;22566;-67
2023/10/07 13:03:58;;;;;;;1.40;1.30;;;22.00;57.50;;;;;;217423;1298;23176;-64
2023/10/07 13:09:03;;;;;;;4.00;2.60;;;22.00;57.60;;;;;;217288;1285;22556;-64
2023/10/07 13:14:08;;;;;;;1.90;1.60;;;22.00;57.50;;;;;;217584;1295;22572;-65
2023/10/07 13:19:13;;;;;;;1.80;1.60;;;22.10;57.60;;;;;;217497;1294;22567;-65
2023/10/07 13:24:17;;;;;;;2.10;1.70;;;22.10;57.50;;;;;;217657;1288;22611;-64
2023/10/07 13:29:19;;;;;;;2.40;1.70;;;22.10;57.90;;;;;;217422;1295;22549;-63
2023/10/07 13:34:24;;;;;;;3.10;2.10;;;22.10;57.80;;;;;;217393;1297;23293;-64
2023/10/07 13:39:27;;;;;;;1.50;1.40;;;22.10;57.60;;;;;;217264;1298;22568;-63
2023/10/07 13:44:30;;;;;;;1.70;1.60;;;22.10;57.70;;;;;;217114;1298;22558;-65
2023/10/07 13:49:33;;;;;;;1.70;1.60;;;22.00;57.60;;;;;;217091;1288;22553;-65
2023/10/07 13:54:46;;;;;;;1.80;1.70;;;22.00;57.70;;;;;;217720;1298;24250;-65
2023/10/07 13:59:51;;;;;;;3.50;1.70;;;22.00;57.80;;;;;;217402;1294;22556;-65
2023/10/07 14:04:57;;;;;;;3.00;2.10;;;22.00;57.70;;;;;;217240;1297;22552;-63
2023/10/07 14:10:00;;;;;;;1.80;1.70;;;22.10;57.70;;;;;;217473;1298;24068;-65
2023/10/07 14:15:04;;;;;;;2.70;2.40;;;22.10;57.70;;;;;;217221;1298;22584;-64
2023/10/07 14:20:13;;;;;;;3.30;2.40;;;22.10;57.70;;;;;;217353;1285;25284;-64
2023/10/07 14:25:16;;;;;;;2.00;1.80;;;22.00;57.60;;;;;;217633;1298;22723;-64
2023/10/07 14:30:22;;;;;;;2.30;1.70;;;22.00;57.70;;;;;;217372;1298;22575;-64
2023/10/07 14:35:25;;;;;;;2.00;1.50;;;22.00;57.60;;;;;;217315;1296;22555;-66
2023/10/07 14:40:36;;;;;;;1.90;1.60;;;22.00;58.00;;;;;;217515;1298;24257;-65
2023/10/07 14:45:47;;;;;;;1.80;1.70;;;22.00;57.80;;;;;;217613;1294;22562;-64
2023/10/07 14:50:50;;;;;;;2.20;2.00;;;22.10;58.20;;;;;;217650;1285;24346;-66
2023/10/07 14:55:53;;;;;;;2.40;2.10;;;22.00;57.90;;;;;;217261;1298;22554;-64
2023/10/07 15:00:56;;;;;;;2.70;1.60;;;22.00;57.90;;;;;;217450;1298;22548;-64
2023/10/07 15:06:15;;;;;;;3.20;2.60;;;22.10;58.00;;;;;;217305;1298;202916;-62
2023/10/07 15:11:20;;;;;;;3.20;2.20;;;22.00;58.10;;;;;;217190;1295;22776;-60
2023/10/07 15:16:22;;;;;;;2.30;2.00;;;22.00;58.20;;;;;;217233;1298;22552;-60
2023/10/07 15:21:26;;;;;;;3.20;2.30;;;22.00;58.50;;;;;;217331;1297;24079;-62
2023/10/07 15:26:29;;;;;;;2.60;1.70;;;22.00;58.40;;;;;;217088;1298;22871;-61
2023/10/07 15:31:33;;;;;;;1.50;1.40;;;22.00;58.10;;;;;;216915;1298;25540;-61
2023/10/07 15:36:37;;;;;;;1.70;1.50;;;22.00;58.70;;;;;;217341;1298;22610;-61
2023/10/07 15:41:40;;;;;;;3.00;1.80;;;22.00;58.40;;;;;;217376;1298;24279;-59
2023/10/07 15:46:43;;;;;;;3.60;2.00;;;22.00;58.80;;;;;;217325;1297;23924;-60
2023/10/07 15:51:46;;;;;;;1.30;1.20;;;22.00;59.00;;;;;;217289;1298;22627;-62
2023/10/07 15:56:48;;;;;;;2.90;1.90;;;21.90;58.80;;;;;;217484;1294;22739;-62
2023/10/07 16:01:51;;;;;;;2.10;1.70;;;21.90;58.90;;;;;;217271;1285;23018;-61
2023/10/07 16:06:57;;;;;;;2.20;1.60;;;21.90;59.00;;;;;;217161;1297;24235;-62
2023/10/07 16:12:00;;;;;;;4.30;1.60;;;21.90;58.90;;;;;;217500;1299;22761;-61
2023/10/07 16:17:05;;;;;;;2.40;1.80;;;21.90;59.10;;;;;;217510;1291;24257;-65
2023/10/07 16:22:08;;;;;;;2.10;1.60;;;21.90;59.10;;;;;;217183;1285;24247;-64
2023/10/07 16:27:11;;;;;;;3.60;1.90;;;21.90;58.90;;;;;;217474;1298;22559;-66
2023/10/07 16:32:14;;;;;;;1.90;1.70;;;21.90;59.30;;;;;;217700;1284;22548;-65
2023/10/07 16:37:18;;;;;;;2.80;1.50;;;21.90;59.30;;;;;;217285;1298;25218;-64
2023/10/07 16:42:21;;;;;;;1.80;1.70;;;21.90;59.20;;;;;;217350;1291;22562;-66
2023/10/07 16:47:24;;;;;;;2.10;1.30;;;21.90;59.50;;;;;;217586;1294;22545;-64
2023/10/07 16:52:27;;;;;;;1.40;1.30;;;21.90;59.20;;;;;;217479;1298;22553;-65
2023/10/07 16:57:30;;;;;;;2.80;1.80;;;21.90;59.20;;;;;;217384;1291;22569;-65
2023/10/07 17:02:34;;;;;;;2.40;1.70;;;21.90;59.20;;;;;;217184;1298;22800;-64
2023/10/07 17:07:37;;;;;;;1.90;1.70;;;21.90;59.20;;;;;;217449;1298;22555;-64
2023/10/07 17:12:40;;;;;;;2.10;1.40;;;21.90;59.60;;;;;;217659;1294;22578;-64
2023/10/07 17:17:45;;;;;;;1.50;1.40;;;21.90;58.90;;;;;;217226;1292;24253;-64
2023/10/07 17:22:49;;;;;;;1.90;1.70;;;21.90;59.30;;;;;;217464;1298;25342;-61
2023/10/07 17:27:54;;;;;;;1.60;1.30;;;21.90;59.40;;;;;;217353;1291;22566;-63
2023/10/07 17:33:05;;;;;;;4.00;2.50;;;21.90;59.40;;;;;;217530;1285;22670;-64
2023/10/07 17:38:13;;;;;;;2.60;2.20;;;21.90;59.40;;;;;;217507;1298;22809;-64
2023/10/07 17:43:17;;;;;;;2.10;1.90;;;21.90;59.30;;;;;;217550;1292;22607;-63
2023/10/07 17:48:22;;;;;;;2.30;1.90;;;21.90;59.70;;;;;;217407;1298;24396;-65
2023/10/07 17:53:27;;;;;;;5.50;3.10;;;21.90;59.40;;;;;;216266;1300;26071;-64
2023/10/07 17:58:30;;;;;;;2.10;1.90;;;21.80;59.30;;;;;;216367;1299;24324;-65
2023/10/07 18:03:33;;;;;;;2.00;1.90;;;21.80;59.40;;;;;;216443;1300;24106;-64
2023/10/07 18:08:37;;;;;;;3.30;2.00;;;21.80;59.40;;;;;;216271;1298;23174;-64
2023/10/07 18:13:40;;;;;;;3.40;2.20;;;21.80;59.40;;;;;;217670;1294;24256;-63
2023/10/07 18:18:44;;;;;;;1.90;1.80;;;21.80;59.30;;;;;;217419;1295;22550;-65
2023/10/07 18:23:47;;;;;;;2.00;1.60;;;21.90;59.50;;;;;;217215;1292;22568;-65
2023/10/07 18:28:50;;;;;;;1.60;1.50;;;21.80;59.40;;;;;;217459;1298;23934;-65
2023/10/07 18:33:54;;;;;;;4.40;2.00;;;21.80;59.50;;;;;;217441;1298;24271;-60
2023/10/07 18:38:57;;;;;;;2.50;2.00;;;21.80;59.40;;;;;;217283;1292;22588;-60
2023/10/07 18:44:01;;;;;;;2.80;2.20;;;21.80;59.40;;;;;;217155;1297;22678;-61
2023/10/07 18:49:06;;;;;;;3.50;1.80;;;21.80;59.50;;;;;;217193;1298;23967;-61
2023/10/07 18:54:10;;;;;;;1.80;1.50;;;21.80;59.40;;;;;;217315;1295;24299;-61
2023/10/07 18:59:15;;;;;;;1.60;1.40;;;21.80;59.60;;;;;;217473;1295;22743;-62
2023/10/07 19:04:20;;;;;;;4.50;2.50;;;21.80;59.50;;;;;;217163;1298;22560;-60
2023/10/07 19:09:23;;;;;;;1.90;1.70;;;21.80;59.70;;;;;;217414;1298;24383;-61
2023/10/07 19:14:27;;;;;;;2.40;1.80;;;21.80;59.60;;;;;;217082;1298;22677;-62
2023/10/07 19:19:31;;;;;;;4.60;2.60;;;21.80;59.90;;;;;;217415;1298;23143;-60
2023/10/07 19:24:35;;;;;;;2.40;2.20;;;21.80;59.50;;;;;;217566;1298;22555;-60
2023/10/07 19:29:41;;;;;;;2.10;1.80;;;21.80;60.10;;;;;;217420;1298;25420;-61
2023/10/07 19:34:45;;;;;;;2.70;2.00;;;21.80;59.60;;;;;;217356;1298;22559;-61
2023/10/07 19:39:50;;;;;;;3.30;2.30;;;21.80;59.70;;;;;;217378;1298;22615;-60
2023/10/07 19:44:55;;;;;;;3.40;2.00;;;21.80;59.70;;;;;;217305;1298;22542;-62
2023/10/07 19:49:59;;;;;;;1.80;1.70;;;21.80;60.30;;;;;;217306;1295;22673;-61
2023/10/07 19:55:05;;;;;;;2.00;1.40;;;21.80;60.50;;;;;;217225;1294;22615;-61
2023/10/07 20:00:10;;;;;;;2.70;1.70;;;21.80;60.20;;;;;;217593;1298;22572;-62
2023/10/07 20:05:13;;;;;;;2.10;1.40;;;21.80;60.60;;;;;;217258;1298;23969;-61
2023/10/07 20:10:17;;;;;;;1.60;1.50;;;21.70;60.10;;;;;;217397;1298;22629;-61
2023/10/07 20:15:22;;;;;;;1.50;1.30;;;21.70;60.10;;;;;;217438;1297;25554;-61
2023/10/07 20:20:25;;;;;;;1.60;1.50;;;21.80;60.20;;;;;;217419;1296;22536;-61
2023/10/07 20:25:29;;;;;;;2.70;1.70;;;21.70;60.10;;;;;;217140;1298;24411;-61
2023/10/07 20:30:34;;;;;;;2.10;1.50;;;21.70;60.10;;;;;;217016;1298;22562;-61
2023/10/07 20:35:37;;;;;;;1.70;1.60;;;21.80;60.20;;;;;;217430;1288;25176;-61
2023/10/07 20:40:51;;;;;;;2.40;1.30;;;21.70;60.10;;;;;;217200;1298;22560;-62
2023/10/07 20:45:59;;;;;;;2.00;1.60;;;21.80;60.10;;;;;;217399;1276;22684;-63
2023/10/07 20:51:04;;;;;;;2.60;2.40;;;21.70;60.10;;;;;;217437;1298;25722;-62
2023/10/07 20:56:08;;;;;;;1.50;1.20;;;21.70;60.10;;;;;;217480;1295;23973;-64
2023/10/07 21:01:17;;;;;;;1.70;1.50;;;21.70;60.00;;;;;;217342;1298;25365;-66
2023/10/07 21:06:21;;;;;;;1.60;1.50;;;21.70;59.90;;;;;;217358;1295;22665;-65
2023/10/07 21:11:24;;;;;;;1.50;1.30;;;21.70;60.20;;;;;;217401;1298;24394;-64
2023/10/07 21:16:28;;;;;;;1.20;1.10;;;21.80;60.00;;;;;;217478;1295;22671;-65
2023/10/07 21:21:31;;;;;;;1.50;1.20;;;21.70;59.90;;;;;;217334;1298;25518;-64
2023/10/07 21:26:33;;;;;;;1.70;1.50;;;21.70;59.90;;;;;;217183;1298;22823;-67
2023/10/07 21:31:36;;;;;;;1.60;1.50;;;21.70;60.00;;;;;;217282;1280;22555;-64
2023/10/07 21:36:40;;;;;;;3.30;2.00;;;21.70;59.90;;;;;;217219;1298;22573;-65
2023/10/07 21:41:43;;;;;;;1.20;1.10;;;21.70;59.90;;;;;;217355;1292;22550;-65
2023/10/07 21:46:46;;;;;;;1.90;1.30;;;21.70;59.90;;;;;;217418;1289;22621;-64
2023/10/07 21:51:49;;;;;;;1.70;1.30;;;21.70;60.20;;;;;;217232;1298;24358;-64
2023/10/07 21:56:52;;;;;;;1.80;1.50;;;21.70;59.90;;;;;;217319;1298;22579;-65
2023/10/07 22:01:57;;;;;;;1.70;1.60;;;21.70;60.10;;;;;;217195;1298;22577;-64
2023/10/07 22:07:00;;;;;;;1.60;1.50;;;21.60;60.00;;;;;;217285;1297;22554;-65
2023/10/07 22:12:03;;;;;;;1.00;1.00;;;21.70;60.60;;;;;;217292;1298;22564;-65
2023/10/07 22:17:06;;;;;;;1.40;1.30;;;21.60;60.00;;;;;;217499;1293;24405;-66
2023/10/07 22:22:10;;;;;;;1.50;1.40;;;21.60;60.00;;;;;;217269;1295;22631;-65
2023/10/07 22:27:13;;;;;;;1.50;1.20;;;21.60;60.00;;;;;;217409;1295;22796;-64
2023/10/07 22:32:21;;;;;;;2.10;1.40;;;21.60;60.00;;;;;;217474;1295;24548;-64
2023/10/07 22:37:24;;;;;;;1.10;0.90;;;21.60;60.00;;;;;;217367;1298;22580;-65
2023/10/07 22:42:36;;;;;;;3.10;1.80;;;21.60;59.90;;;;;;217442;1298;22661;-64
2023/10/07 22:47:40;;;;;;;1.40;1.20;;;21.60;59.80;;;;;;217478;1293;22576;-64
2023/10/07 22:52:52;;;;;;;2.20;1.70;;;21.60;60.30;;;;;;217250;1298;22553;-65
2023/10/07 22:57:55;;;;;;;1.00;0.90;;;21.60;59.80;;;;;;217376;1295;22572;-65
2023/10/07 23:03:12;;;;;;;2.30;1.40;;;21.60;59.70;;;;;;217408;1286;23671;-64
2023/10/07 23:08:16;;;;;;;1.80;1.40;;;21.60;59.70;;;;;;217272;1298;24280;-67
2023/10/07 23:13:32;;;;;;;1.40;1.20;;;21.60;59.60;;;;;;217429;1298;22573;-66
2023/10/07 23:18:40;;;;;;;1.20;0.90;;;21.50;59.60;;;;;;217466;1298;24388;-66
2023/10/07 23:23:45;;;;;;;1.20;1.10;;;21.50;59.60;;;;;;217412;1298;23941;-65
2023/10/07 23:28:56;;;;;;;1.10;1.00;;;21.50;59.50;;;;;;217446;1298;22582;-65
2023/10/07 23:39:22;;;;;;;1.10;0.90;;;21.50;59.40;;;;;;217547;1298;22652;-66
2023/10/07 23:44:32;;;;;;;0.70;0.70;;;21.50;59.40;;;;;;217583;1294;22713;-67
2023/10/07 23:49:36;;;;;;;0.90;0.90;;;21.50;59.40;;;;;;217433;1285;22549;-67
2023/10/07 23:54:38;;;;;;;1.30;1.10;;;21.50;59.30;;;;;;217441;1298;24321;-66
2023/10/07 23:59:43;;;;;;;0.90;0.70;;;21.50;59.30;;;;;;217315;1295;22702;-66
